Terminal Aerodrome Forecast
Issued by NWS

Home | Current Version | Previous Version | Text Only | Print | Product List | Glossary Off
Versions: 1 2 3 4 5 6 7 8 9 10 11 12 13 14 15 16 17 18 19 20 21

000
FTUS43 KMPX 231700 RRA
TAFRNH
TAF
KRNH 231741Z 2318/2418 00000KT 1/4SM FG VV001
     FM231930 27002KT 4SM BR BKN006 OVC012
     FM232000 29005KT 5SM BR OVC012
     FM232300 31007KT 6SM BR BKN050 OVC090
     FM240100 31009KT 5SM -SHRA BKN030 OVC050
     FM240500 31011KT 4SM -SHSNRA OVC020
     FM241000 31017G25KT P6SM OVC017=

USA.gov is the U.S. government's official web portal to all federal, state and local government web resources and services.